Time;durP1;ratioP1;P1;durP2;ratioP2;P2;SDS_P1;SDS_P2;PMS_P1;PMS_P2;Temp;Humidity;BMP_temperature;BMP_pressure;BME280_temperature;BME280_humidity;BME280_pressure;Samples;Min_cycle;Max_cycle;Signal;HPM_P1;HPM_P2
2022/01/09 00:02:14;;;;;;;3.23;2.97;;;1.80;99.90;;;;;;5089910;28;20775;-79
2022/01/09 00:04:59;;;;;;;1.70;1.60;;;1.90;99.90;;;;;;5089778;28;20359;-79
2022/01/09 00:07:43;;;;;;;9.70;4.00;;;1.80;99.90;;;;;;5088708;28;20363;-79
2022/01/09 00:10:30;;;;;;;6.30;3.60;;;1.90;99.90;;;;;;5088627;28;20481;-79
2022/01/09 00:13:14;;;;;;;5.00;2.00;;;1.90;99.90;;;;;;5088309;28;20385;-79
2022/01/09 00:15:59;;;;;;;5.83;3.20;;;1.90;99.90;;;;;;5088585;28;20461;-80
2022/01/09 00:18:44;;;;;;;2.17;2.07;;;1.90;99.90;;;;;;5088498;28;20460;-80
2022/01/09 00:21:28;;;;;;;2.80;2.60;;;2.00;99.90;;;;;;5088598;28;20402;-80
2022/01/09 00:24:12;;;;;;;4.67;3.33;;;2.00;99.90;;;;;;5089100;28;20360;-80
2022/01/09 00:26:57;;;;;;;1.67;1.50;;;2.00;99.90;;;;;;5088833;28;20436;-80
2022/01/09 00:29:41;;;;;;;3.00;2.80;;;2.00;99.90;;;;;;5088832;28;20407;-80
2022/01/09 00:32:26;;;;;;;3.33;3.03;;;1.90;99.90;;;;;;5073305;28;20402;-80
2022/01/09 00:35:12;;;;;;;3.60;2.83;;;1.90;99.90;;;;;;5088224;28;20400;-80
2022/01/09 00:37:56;;;;;;;1.93;1.80;;;1.90;99.90;;;;;;5088987;28;20427;-80
2022/01/09 00:40:41;;;;;;;2.70;2.40;;;2.00;99.90;;;;;;5088938;28;20417;-80
2022/01/09 00:43:26;;;;;;;3.87;3.40;;;1.90;99.90;;;;;;5088494;28;20371;-80
2022/01/09 00:46:10;;;;;;;4.03;3.30;;;2.00;99.90;;;;;;5089676;28;20368;-80
2022/01/09 00:48:55;;;;;;;4.17;3.37;;;2.00;99.90;;;;;;5096383;28;20401;-79
2022/01/09 00:51:39;;;;;;;2.67;2.20;;;2.00;99.90;;;;;;5097723;28;20388;-79
2022/01/09 00:54:24;;;;;;;3.93;3.63;;;2.00;99.90;;;;;;5096882;28;20393;-79
2022/01/09 00:57:08;;;;;;;2.53;2.33;;;2.00;99.90;;;;;;5089899;28;20401;-79
2022/01/09 00:59:53;;;;;;;4.57;4.20;;;2.00;99.90;;;;;;5088870;28;20395;-79
2022/01/09 01:02:39;;;;;;;4.07;3.53;;;2.00;99.90;;;;;;5088813;28;20360;-79
2022/01/09 01:05:24;;;;;;;3.97;2.87;;;2.00;99.90;;;;;;5089310;28;20405;-79
2022/01/09 01:08:08;;;;;;;4.43;3.40;;;2.00;99.90;;;;;;5088880;28;20703;-79
2022/01/09 01:10:53;;;;;;;3.53;3.20;;;1.90;99.90;;;;;;5087554;28;20375;-79
2022/01/09 01:13:38;;;;;;;3.63;3.33;;;1.90;99.90;;;;;;5087646;28;20423;-80
2022/01/09 01:16:22;;;;;;;3.23;2.97;;;1.90;99.90;;;;;;5088313;28;20393;-79
2022/01/09 01:19:07;;;;;;;4.80;3.40;;;2.00;99.90;;;;;;5088129;28;20441;-79
2022/01/09 01:21:52;;;;;;;3.30;3.00;;;2.00;99.90;;;;;;5088624;28;20436;-79
2022/01/09 01:24:37;;;;;;;6.03;4.43;;;1.90;99.90;;;;;;5087661;28;20356;-80
2022/01/09 01:27:22;;;;;;;2.50;2.37;;;1.90;99.90;;;;;;5088844;28;20393;-79
2022/01/09 01:30:08;;;;;;;5.87;2.80;;;1.90;99.90;;;;;;5087866;28;20383;-79
2022/01/09 01:32:52;;;;;;;3.73;2.70;;;1.80;99.90;;;;;;5088318;28;20374;-79
2022/01/09 01:35:37;;;;;;;2.70;2.37;;;1.80;99.90;;;;;;5087835;28;20367;-79
2022/01/09 01:38:21;;;;;;;5.80;4.50;;;1.80;99.90;;;;;;5087435;28;20410;-79
2022/01/09 01:41:06;;;;;;;2.80;2.60;;;1.80;99.90;;;;;;5087456;28;20462;-79
2022/01/09 01:43:50;;;;;;;5.03;3.60;;;1.80;99.90;;;;;;5072989;28;20363;-79
2022/01/09 01:46:35;;;;;;;3.10;2.73;;;1.80;99.90;;;;;;5087689;28;20381;-80
2022/01/09 01:49:20;;;;;;;3.87;3.57;;;1.90;99.90;;;;;;5088514;28;20422;-79
2022/01/09 01:52:06;;;;;;;3.67;2.93;;;1.80;99.90;;;;;;5091805;28;20363;-79
2022/01/09 01:54:51;;;;;;;1.60;1.40;;;1.80;99.90;;;;;;5091793;28;20430;-79
2022/01/09 01:57:38;;;;;;;3.67;3.37;;;1.90;99.90;;;;;;5091769;28;20405;-79
2022/01/09 02:00:23;;;;;;;2.17;2.00;;;1.90;99.90;;;;;;5091816;28;20452;-80
2022/01/09 02:03:09;;;;;;;2.23;1.53;;;1.80;99.90;;;;;;5092249;28;20377;-80
2022/01/09 02:05:54;;;;;;;3.30;3.00;;;1.90;99.90;;;;;;5091361;28;20407;-79
2022/01/09 02:08:38;;;;;;;2.87;2.30;;;1.80;99.90;;;;;;5091024;28;20359;-79
2022/01/09 02:11:24;;;;;;;2.03;1.93;;;1.80;99.90;;;;;;5091763;28;20451;-79
2022/01/09 02:14:09;;;;;;;3.00;2.70;;;2.00;99.90;;;;;;5092055;28;20364;-80
2022/01/09 02:16:53;;;;;;;1.77;1.67;;;2.00;99.90;;;;;;5091784;28;20443;-80
2022/01/09 02:19:38;;;;;;;3.00;1.93;;;2.10;99.90;;;;;;5091722;28;20427;-79
2022/01/09 02:22:25;;;;;;;2.47;2.27;;;2.00;99.90;;;;;;5091231;28;20463;-80
2022/01/09 02:25:10;;;;;;;1.53;1.43;;;2.10;99.90;;;;;;5090883;28;20427;-79
2022/01/09 02:27:55;;;;;;;2.20;2.10;;;2.00;99.90;;;;;;5090758;28;20382;-79
2022/01/09 02:30:41;;;;;;;2.47;2.27;;;2.00;99.90;;;;;;5091182;28;20389;-79
2022/01/09 02:33:25;;;;;;;2.10;1.90;;;2.00;99.90;;;;;;5090916;28;20707;-79
2022/01/09 02:36:10;;;;;;;3.63;2.40;;;1.80;99.90;;;;;;5090666;28;20492;-80
2022/01/09 02:38:54;;;;;;;3.43;2.37;;;1.90;99.90;;;;;;5076228;28;20463;-79
2022/01/09 02:41:39;;;;;;;2.40;1.90;;;1.80;99.90;;;;;;5091876;28;20381;-79
2022/01/09 02:44:24;;;;;;;1.50;1.40;;;1.90;99.90;;;;;;5099512;28;20413;-79
2022/01/09 02:47:09;;;;;;;1.50;1.30;;;1.80;99.90;;;;;;5091483;28;20440;-80
2022/01/09 02:49:55;;;;;;;1.77;1.67;;;1.70;99.90;;;;;;5090328;28;20461;-79
2022/01/09 02:52:51;;;;;;;1.60;1.50;;;1.70;99.90;;;;;;5090641;28;20398;-80
2022/01/09 02:55:36;;;;;;;2.33;1.20;;;1.70;99.90;;;;;;5091040;28;20424;-80
2022/01/09 02:58:20;;;;;;;2.03;1.90;;;1.80;99.90;;;;;;5075560;28;20445;-79
2022/01/09 03:01:06;;;;;;;3.57;2.77;;;1.80;99.90;;;;;;5090178;28;20352;-80
2022/01/09 03:03:51;;;;;;;3.10;2.80;;;1.80;99.90;;;;;;5092389;28;20379;-79
2022/01/09 03:06:36;;;;;;;2.97;2.77;;;1.80;99.90;;;;;;5092831;28;20364;-79
2022/01/09 03:09:20;;;;;;;1.53;1.43;;;1.80;99.90;;;;;;5094406;28;20397;-79
2022/01/09 03:12:06;;;;;;;2.50;2.40;;;1.80;99.90;;;;;;5094606;28;20363;-80
2022/01/09 03:14:50;;;;;;;1.73;1.63;;;1.80;99.90;;;;;;5093751;28;20459;-80
2022/01/09 03:17:36;;;;;;;2.30;2.20;;;1.80;99.90;;;;;;5096134;28;20803;-79
2022/01/09 03:20:23;;;;;;;1.93;1.83;;;1.80;99.90;;;;;;5091726;28;20390;-79
2022/01/09 03:23:08;;;;;;;1.50;1.40;;;2.00;99.90;;;;;;5091302;28;20462;-79
2022/01/09 03:25:52;;;;;;;2.70;1.83;;;2.00;99.90;;;;;;5090749;28;20394;-79
2022/01/09 03:28:37;;;;;;;1.30;1.20;;;1.90;99.90;;;;;;5091415;28;20392;-79
2022/01/09 03:31:22;;;;;;;2.90;1.93;;;1.90;99.90;;;;;;5090956;28;20363;-80
2022/01/09 03:34:06;;;;;;;1.30;1.20;;;1.90;99.90;;;;;;5091740;28;20438;-80
2022/01/09 03:36:51;;;;;;;1.70;1.60;;;1.90;99.90;;;;;;5091711;28;20413;-80
2022/01/09 03:39:35;;;;;;;1.50;1.40;;;2.00;99.90;;;;;;5075405;28;20440;-80
2022/01/09 03:42:20;;;;;;;2.00;1.30;;;2.00;99.90;;;;;;5075922;28;20352;-80
2022/01/09 03:45:06;;;;;;;1.47;1.37;;;1.90;99.90;;;;;;5091634;28;20366;-80
2022/01/09 03:47:51;;;;;;;1.10;1.10;;;2.00;99.90;;;;;;5091541;28;20444;-79
2022/01/09 03:50:36;;;;;;;2.13;1.90;;;1.90;99.90;;;;;;5091967;28;20388;-80
2022/01/09 03:53:20;;;;;;;1.40;1.30;;;1.90;99.90;;;;;;5097124;28;20425;-80
2022/01/09 03:56:05;;;;;;;1.57;1.47;;;2.00;99.90;;;;;;5098657;28;20384;-79
2022/01/09 03:58:50;;;;;;;1.40;1.30;;;1.90;99.90;;;;;;5098462;28;20418;-79
2022/01/09 04:01:34;;;;;;;1.87;1.50;;;2.00;99.90;;;;;;5083644;28;20397;-79
2022/01/09 04:04:19;;;;;;;1.10;1.00;;;2.10;99.90;;;;;;5098331;28;20385;-79
2022/01/09 04:07:04;;;;;;;1.00;1.00;;;2.10;99.90;;;;;;5098193;28;20370;-79
2022/01/09 04:09:48;;;;;;;1.20;1.10;;;2.20;99.90;;;;;;5098705;28;20379;-79
2022/01/09 04:12:46;;;;;;;1.50;1.40;;;2.20;99.90;;;;;;5097696;28;20387;-79
2022/01/09 04:15:31;;;;;;;1.40;1.30;;;2.10;99.90;;;;;;5077675;28;20380;-79
2022/01/09 04:18:17;;;;;;;1.10;1.00;;;2.00;99.90;;;;;;5097570;28;20422;-80
2022/01/09 04:21:02;;;;;;;1.67;1.57;;;2.10;99.90;;;;;;5079904;28;20451;-80
2022/01/09 04:23:46;;;;;;;1.30;1.20;;;2.10;99.90;;;;;;5092217;28;20351;-80
2022/01/09 04:26:31;;;;;;;1.40;1.30;;;2.00;99.90;;;;;;5097253;28;20393;-80
2022/01/09 04:29:16;;;;;;;1.50;1.40;;;2.20;99.90;;;;;;5097298;28;20359;-80
2022/01/09 04:32:02;;;;;;;1.67;1.57;;;2.20;99.90;;;;;;5097699;28;20456;-79
2022/01/09 04:34:47;;;;;;;1.30;1.20;;;2.20;99.90;;;;;;5094084;28;20397;-80
2022/01/09 04:37:33;;;;;;;1.83;1.60;;;2.30;99.90;;;;;;5075203;28;20870;-79
2022/01/09 04:40:19;;;;;;;1.43;1.33;;;2.20;99.90;;;;;;5090389;28;20359;-79
2022/01/09 04:43:07;;;;;;;1.53;1.30;;;2.20;99.90;;;;;;5090150;28;20356;-80
2022/01/09 04:45:52;;;;;;;1.50;1.40;;;2.20;99.90;;;;;;5088495;28;20387;-79
2022/01/09 04:48:36;;;;;;;1.03;1.03;;;2.30;99.90;;;;;;5088023;28;20563;-79
2022/01/09 04:51:21;;;;;;;1.60;1.50;;;2.20;99.90;;;;;;5089908;28;20392;-80
2022/01/09 04:54:06;;;;;;;1.40;1.30;;;2.30;99.90;;;;;;5090092;28;20363;-79
2022/01/09 04:56:50;;;;;;;2.03;1.83;;;2.40;99.90;;;;;;5090024;28;20448;-80
2022/01/09 04:59:35;;;;;;;1.63;1.47;;;2.40;99.90;;;;;;5089676;28;20444;-80
2022/01/09 05:02:19;;;;;;;1.50;1.40;;;2.40;99.90;;;;;;5089140;28;20363;-79
2022/01/09 05:05:06;;;;;;;1.60;1.50;;;2.30;99.90;;;;;;5089585;28;20410;-79
2022/01/09 05:07:50;;;;;;;1.50;1.33;;;2.40;99.90;;;;;;5089407;28;20375;-79
2022/01/09 05:10:35;;;;;;;1.80;1.70;;;2.60;99.90;;;;;;5089730;28;20767;-80
2022/01/09 05:13:20;;;;;;;1.60;1.50;;;2.50;99.90;;;;;;5089232;28;20412;-80
2022/01/09 05:16:05;;;;;;;2.50;1.70;;;2.50;99.90;;;;;;5090069;28;20360;-80
2022/01/09 05:18:52;;;;;;;1.40;1.30;;;2.60;99.90;;;;;;5089522;28;20822;-79
2022/01/09 05:21:37;;;;;;;6.83;1.50;;;2.50;99.90;;;;;;5089463;28;20428;-79
2022/01/09 05:24:22;;;;;;;1.80;1.50;;;2.60;99.90;;;;;;5090203;28;20404;-79
2022/01/09 05:27:07;;;;;;;1.73;1.63;;;2.60;99.90;;;;;;5077775;28;20852;-79
2022/01/09 05:29:51;;;;;;;1.67;1.57;;;2.60;99.90;;;;;;5092962;28;20366;-80
2022/01/09 05:32:36;;;;;;;2.00;1.90;;;2.60;99.90;;;;;;5093209;28;20428;-79
2022/01/09 05:35:22;;;;;;;1.73;1.63;;;2.70;99.90;;;;;;5093277;28;20778;-79
2022/01/09 05:38:07;;;;;;;1.70;1.60;;;2.70;99.90;;;;;;5078377;28;20455;-79
2022/01/09 05:40:51;;;;;;;2.17;1.97;;;2.80;99.90;;;;;;5098908;28;20395;-79
2022/01/09 05:43:36;;;;;;;2.03;1.80;;;2.80;99.90;;;;;;5098139;28;20408;-80
2022/01/09 05:46:20;;;;;;;2.20;2.00;;;2.90;99.90;;;;;;5092715;28;20427;-80
2022/01/09 05:49:05;;;;;;;2.20;2.00;;;2.90;99.90;;;;;;5093427;28;20363;-80
2022/01/09 05:51:50;;;;;;;2.10;1.70;;;2.90;99.90;;;;;;5092649;28;20396;-79
2022/01/09 05:54:36;;;;;;;2.00;1.90;;;2.90;99.90;;;;;;5092789;28;20452;-80
2022/01/09 05:57:20;;;;;;;3.57;2.40;;;3.10;99.90;;;;;;5093076;28;20476;-80
2022/01/09 06:00:06;;;;;;;2.37;2.23;;;3.10;99.90;;;;;;5092029;28;20367;-79
2022/01/09 06:02:51;;;;;;;2.50;2.30;;;3.20;99.90;;;;;;5092490;28;20383;-80
2022/01/09 06:05:35;;;;;;;2.20;2.10;;;3.20;99.90;;;;;;5093441;28;20369;-79
2022/01/09 06:08:20;;;;;;;2.20;1.67;;;3.40;99.90;;;;;;5093005;28;20448;-79
2022/01/09 06:11:05;;;;;;;1.70;1.60;;;3.40;99.90;;;;;;5077724;28;20374;-80
2022/01/09 06:13:50;;;;;;;4.77;2.07;;;3.40;99.90;;;;;;5092261;28;20544;-80
2022/01/09 06:16:34;;;;;;;1.80;1.70;;;3.50;99.90;;;;;;5092496;28;20396;-79
2022/01/09 06:19:19;;;;;;;2.70;2.50;;;3.60;99.90;;;;;;5092095;28;20411;-79
2022/01/09 06:22:04;;;;;;;2.20;2.03;;;3.60;99.90;;;;;;5092371;28;20439;-80
2022/01/09 06:24:50;;;;;;;5.53;2.50;;;3.50;99.90;;;;;;5092402;28;20363;-80
2022/01/09 06:27:35;;;;;;;1.97;1.87;;;3.40;99.90;;;;;;5092417;28;20389;-80
2022/01/09 06:30:20;;;;;;;1.47;1.37;;;3.50;99.90;;;;;;5092287;28;20400;-79
2022/01/09 06:33:04;;;;;;;2.20;2.10;;;3.50;99.90;;;;;;5093052;28;20472;-80
2022/01/09 06:35:49;;;;;;;2.10;1.90;;;3.40;99.90;;;;;;5091417;28;20412;-80
2022/01/09 06:38:33;;;;;;;3.10;2.40;;;3.40;99.90;;;;;;5091691;28;20422;-80
2022/01/09 06:41:18;;;;;;;1.90;1.80;;;3.40;99.90;;;;;;5092266;28;20416;-80
2022/01/09 06:44:03;;;;;;;3.40;2.03;;;3.40;99.90;;;;;;5094711;28;20428;-78
2022/01/09 06:46:47;;;;;;;2.40;2.20;;;3.20;99.90;;;;;;5091912;28;20472;-79
2022/01/09 06:49:34;;;;;;;3.63;2.03;;;3.20;99.90;;;;;;5092224;28;20396;-80
2022/01/09 06:52:18;;;;;;;2.70;2.07;;;3.20;99.90;;;;;;5091663;28;20367;-80
2022/01/09 06:55:04;;;;;;;1.63;1.53;;;3.20;99.90;;;;;;5091789;28;20385;-80
2022/01/09 06:57:49;;;;;;;2.20;2.00;;;3.30;99.90;;;;;;5076967;28;20490;-80
2022/01/09 07:00:33;;;;;;;1.87;1.77;;;3.40;99.90;;;;;;5092293;28;20370;-80
2022/01/09 07:03:18;;;;;;;2.97;2.73;;;3.40;99.90;;;;;;5091649;28;20352;-80
2022/01/09 07:06:02;;;;;;;2.40;1.63;;;3.50;99.90;;;;;;5091775;28;20355;-80
2022/01/09 07:08:47;;;;;;;3.13;1.40;;;3.50;99.90;;;;;;5092722;28;20360;-80
2022/01/09 07:11:32;;;;;;;2.90;1.73;;;3.50;99.90;;;;;;5091757;28;20359;-79
2022/01/09 07:14:17;;;;;;;2.13;1.57;;;3.50;99.90;;;;;;5092819;28;20868;-80
2022/01/09 07:17:02;;;;;;;2.90;2.60;;;3.50;99.90;;;;;;5076977;28;20433;-80
2022/01/09 07:19:46;;;;;;;1.90;1.80;;;3.60;99.90;;;;;;5091222;28;20517;-80
2022/01/09 07:22:30;;;;;;;1.50;1.40;;;3.60;99.90;;;;;;5076418;28;20404;-79
2022/01/09 07:25:15;;;;;;;1.50;1.40;;;3.70;99.90;;;;;;5091613;28;20384;-80
2022/01/09 07:28:02;;;;;;;1.50;1.40;;;3.70;99.90;;;;;;5090926;28;20413;-80
2022/01/09 07:30:46;;;;;;;1.10;1.00;;;3.80;99.90;;;;;;5076711;28;20440;-80
2022/01/09 07:33:31;;;;;;;1.53;1.40;;;4.00;99.90;;;;;;5091475;28;20417;-80
2022/01/09 07:36:18;;;;;;;1.30;1.20;;;4.10;99.90;;;;;;5091863;28;20396;-79
2022/01/09 07:39:03;;;;;;;1.60;1.50;;;4.20;99.90;;;;;;5090836;28;20426;-80
2022/01/09 07:41:49;;;;;;;1.03;1.00;;;4.10;99.90;;;;;;5091180;28;20450;-79
2022/01/09 07:44:34;;;;;;;0.90;0.90;;;4.20;99.90;;;;;;5091724;28;20383;-80
2022/01/09 07:47:18;;;;;;;1.20;1.10;;;4.30;99.90;;;;;;5090520;28;20468;-80
2022/01/09 07:50:05;;;;;;;0.90;0.90;;;4.20;99.90;;;;;;5062832;28;20389;-80
2022/01/09 07:52:50;;;;;;;1.43;1.10;;;4.30;99.90;;;;;;5076682;28;20768;-80
2022/01/09 07:55:35;;;;;;;2.63;1.10;;;4.30;99.90;;;;;;5090935;28;20375;-80
2022/01/09 07:58:20;;;;;;;0.90;0.90;;;4.30;99.90;;;;;;5091269;28;20431;-80
2022/01/09 08:01:04;;;;;;;1.10;1.00;;;4.30;99.90;;;;;;5091881;28;20371;-80
2022/01/09 08:03:49;;;;;;;0.90;0.90;;;4.30;99.90;;;;;;5091747;28;20410;-80
2022/01/09 08:06:34;;;;;;;1.10;1.00;;;4.30;99.90;;;;;;5076330;28;20467;-80
2022/01/09 08:09:18;;;;;;;0.90;0.90;;;4.30;99.90;;;;;;5092970;28;20379;-80
2022/01/09 08:12:04;;;;;;;5.10;1.43;;;4.20;99.90;;;;;;5090382;28;20445;-79
2022/01/09 08:14:49;;;;;;;0.90;0.90;;;4.10;99.90;;;;;;5090712;28;20393;-79
2022/01/09 08:17:34;;;;;;;0.90;0.90;;;4.10;99.90;;;;;;5089744;28;20385;-80
2022/01/09 08:20:18;;;;;;;2.30;0.90;;;3.90;99.90;;;;;;5075266;28;20436;-80
2022/01/09 08:23:03;;;;;;;1.20;1.10;;;3.80;99.90;;;;;;5090403;28;20415;-80
2022/01/09 08:25:48;;;;;;;0.90;0.90;;;3.80;99.90;;;;;;5090802;28;20363;-80
2022/01/09 08:28:32;;;;;;;1.27;1.20;;;3.90;99.90;;;;;;5090532;28;20378;-79
2022/01/09 08:31:18;;;;;;;0.93;0.93;;;3.80;99.90;;;;;;5090913;28;20388;-79
2022/01/09 08:34:03;;;;;;;1.10;1.00;;;4.00;99.90;;;;;;5089903;28;20438;-79
2022/01/09 08:36:47;;;;;;;1.03;1.03;;;3.90;99.90;;;;;;5090417;28;20404;-79
2022/01/09 08:39:32;;;;;;;1.40;1.30;;;4.00;99.90;;;;;;5094617;28;20569;-80
2022/01/09 08:42:17;;;;;;;1.00;1.00;;;3.70;99.90;;;;;;5097113;28;20397;-80
2022/01/09 08:45:02;;;;;;;1.40;1.30;;;3.80;99.90;;;;;;5092536;28;20512;-80
2022/01/09 08:47:47;;;;;;;4.80;1.17;;;4.00;99.90;;;;;;5089812;28;20423;-79
2022/01/09 08:50:31;;;;;;;1.30;1.20;;;4.00;99.90;;;;;;5090098;28;20437;-80
2022/01/09 08:53:17;;;;;;;4.33;1.40;;;4.00;99.90;;;;;;5089816;28;20355;-79
2022/01/09 08:56:03;;;;;;;1.97;1.83;;;4.20;99.90;;;;;;5089646;28;20447;-80
2022/01/09 08:58:49;;;;;;;1.30;1.10;;;4.20;99.90;;;;;;5091432;28;20514;-80
2022/01/09 09:01:33;;;;;;;1.30;1.20;;;4.20;99.90;;;;;;5078731;28;20352;-80
2022/01/09 09:04:18;;;;;;;1.60;1.50;;;4.10;99.90;;;;;;5093886;28;20479;-80
2022/01/09 09:07:03;;;;;;;0.90;0.90;;;4.20;99.90;;;;;;5093990;28;20420;-80
2022/01/09 09:09:48;;;;;;;1.73;1.37;;;4.20;99.90;;;;;;5093861;28;20370;-80
2022/01/09 09:12:33;;;;;;;1.37;1.27;;;4.10;99.90;;;;;;5094143;28;20371;-79
2022/01/09 09:15:20;;;;;;;6.97;1.37;;;4.10;99.90;;;;;;5093565;28;20390;-80
2022/01/09 09:18:04;;;;;;;1.27;1.17;;;4.00;99.90;;;;;;5093417;28;20434;-79
2022/01/09 09:20:49;;;;;;;2.40;1.30;;;4.00;99.90;;;;;;5093947;28;20358;-79
2022/01/09 09:23:33;;;;;;;1.20;0.97;;;4.00;99.90;;;;;;5078248;28;20352;-79
2022/01/09 09:26:18;;;;;;;2.80;1.73;;;4.10;99.90;;;;;;5093942;28;20425;-80
2022/01/09 09:29:03;;;;;;;1.73;1.10;;;4.10;99.90;;;;;;5093358;28;20419;-79
2022/01/09 09:31:47;;;;;;;1.73;1.43;;;4.00;99.90;;;;;;5093948;28;20367;-80
2022/01/09 09:34:33;;;;;;;1.57;1.47;;;4.10;99.90;;;;;;5093183;28;20394;-80
2022/01/09 09:37:17;;;;;;;2.50;1.60;;;4.20;99.90;;;;;;5093710;28;20397;-79
2022/01/09 09:40:02;;;;;;;2.20;2.00;;;4.10;99.90;;;;;;5092615;28;20460;-79
2022/01/09 09:42:47;;;;;;;1.30;1.20;;;4.10;99.90;;;;;;5092632;28;20359;-79
2022/01/09 09:45:32;;;;;;;1.20;1.10;;;4.00;99.90;;;;;;5093161;28;20384;-80
2022/01/09 09:48:17;;;;;;;2.80;1.27;;;4.20;99.90;;;;;;5093103;28;20463;-80
2022/01/09 09:51:01;;;;;;;1.20;1.10;;;4.10;99.90;;;;;;5092940;28;20402;-79
2022/01/09 09:53:46;;;;;;;2.00;1.43;;;4.20;99.90;;;;;;5092331;28;20367;-80
2022/01/09 09:56:31;;;;;;;1.80;1.70;;;4.10;99.90;;;;;;5077309;28;20409;-79
2022/01/09 09:59:24;;;;;;;1.00;1.00;;;4.20;99.90;;;;;;5092892;28;20775;-79
2022/01/09 10:02:11;;;;;;;1.50;1.40;;;4.20;99.90;;;;;;5093754;28;20379;-79
2022/01/09 10:05:00;;;;;;;2.30;1.93;;;4.10;99.90;;;;;;5077895;28;20389;-80
2022/01/09 10:07:45;;;;;;;1.43;1.33;;;4.10;99.90;;;;;;5092717;28;20348;-79
2022/01/09 10:10:32;;;;;;;3.57;2.70;;;4.10;99.90;;;;;;5092254;28;20414;-80
2022/01/09 10:13:19;;;;;;;1.63;1.27;;;4.10;99.90;;;;;;5093363;28;20712;-79
2022/01/09 10:16:04;;;;;;;1.93;1.60;;;4.00;99.90;;;;;;5093014;28;20384;-79
2022/01/09 10:18:49;;;;;;;2.00;1.47;;;4.20;99.90;;;;;;5092773;28;20508;-80
2022/01/09 10:21:34;;;;;;;2.70;2.50;;;4.20;99.90;;;;;;5091902;28;20462;-80
2022/01/09 10:24:18;;;;;;;1.40;1.30;;;4.20;99.90;;;;;;5092568;28;20360;-80
2022/01/09 10:27:03;;;;;;;2.10;1.30;;;4.30;99.90;;;;;;5092349;28;20743;-80
2022/01/09 10:29:49;;;;;;;1.20;1.10;;;4.30;99.90;;;;;;5092025;28;20408;-79
2022/01/09 10:32:34;;;;;;;1.33;1.23;;;4.30;99.90;;;;;;5073886;28;20359;-79
2022/01/09 10:35:20;;;;;;;1.47;1.37;;;4.10;99.90;;;;;;5091371;28;20389;-79
2022/01/09 10:38:16;;;;;;;1.77;1.60;;;4.20;99.90;;;;;;5090432;28;20463;-80
2022/01/09 10:41:03;;;;;;;1.93;1.50;;;4.30;99.90;;;;;;5075867;28;20400;-79
2022/01/09 10:43:50;;;;;;;1.17;1.10;;;4.40;99.90;;;;;;5090216;28;20382;-80
2022/01/09 10:46:35;;;;;;;2.43;1.27;;;4.30;99.90;;;;;;5076304;28;20405;-80
2022/01/09 10:49:19;;;;;;;1.80;1.70;;;4.30;99.90;;;;;;5092378;28;20399;-79
2022/01/09 10:52:16;;;;;;;1.83;1.73;;;4.30;99.90;;;;;;5091655;28;20389;-80
2022/01/09 10:55:06;;;;;;;1.60;1.50;;;4.30;99.90;;;;;;5076283;28;20388;-80
2022/01/09 10:57:51;;;;;;;1.77;1.67;;;4.30;99.90;;;;;;5091014;28;20422;-79
2022/01/09 11:00:35;;;;;;;1.13;1.03;;;4.30;99.90;;;;;;5091790;28;20385;-80
2022/01/09 11:03:20;;;;;;;1.47;1.37;;;4.30;99.90;;;;;;5091760;28;20387;-80
2022/01/09 11:06:06;;;;;;;1.80;1.60;;;4.40;99.90;;;;;;5091778;28;20364;-80
2022/01/09 11:08:52;;;;;;;1.33;1.23;;;4.30;99.90;;;;;;5091820;28;20420;-80
2022/01/09 11:11:39;;;;;;;1.10;1.00;;;4.40;99.90;;;;;;5093646;28;20397;-80
2022/01/09 11:14:26;;;;;;;1.20;1.10;;;4.30;99.90;;;;;;5079345;28;20389;-80
2022/01/09 11:17:11;;;;;;;3.50;1.13;;;4.40;99.90;;;;;;5094522;28;20379;-80
2022/01/09 11:19:55;;;;;;;0.90;0.90;;;4.30;99.90;;;;;;5093540;28;20423;-79
2022/01/09 11:22:42;;;;;;;1.30;1.20;;;4.20;99.90;;;;;;5074906;28;20403;-80
2022/01/09 11:25:37;;;;;;;1.70;1.60;;;4.20;99.90;;;;;;5089968;28;20356;-79
2022/01/09 11:28:25;;;;;;;2.07;1.97;;;4.30;99.90;;;;;;5084217;28;20389;-79
2022/01/09 11:31:31;;;;;;;1.70;1.60;;;4.30;99.90;;;;;;5091330;28;20359;-80
2022/01/09 11:34:34;;;;;;;3.13;1.53;;;4.30;99.90;;;;;;5075960;28;20454;-80
2022/01/09 11:37:27;;;;;;;1.40;1.30;;;4.40;99.90;;;;;;5089819;28;20363;-79
2022/01/09 11:40:25;;;;;;;2.27;1.93;;;4.40;99.90;;;;;;5089570;28;20405;-79
2022/01/09 11:43:14;;;;;;;1.40;1.30;;;4.30;99.90;;;;;;5088751;28;20360;-79
2022/01/09 11:46:02;;;;;;;1.50;1.40;;;4.30;99.90;;;;;;5074302;28;20385;-78
2022/01/09 11:49:06;;;;;;;1.23;1.13;;;4.30;99.90;;;;;;5089615;28;20379;-79
2022/01/09 11:51:56;;;;;;;1.60;1.37;;;4.20;99.90;;;;;;5090066;28;20367;-79
2022/01/09 11:55:00;;;;;;;3.87;1.70;;;4.20;99.90;;;;;;5090376;28;20396;-79
2022/01/09 11:57:48;;;;;;;1.73;1.20;;;4.30;99.90;;;;;;5089459;28;20372;-79
2022/01/09 12:00:40;;;;;;;1.50;1.40;;;4.40;99.90;;;;;;5089825;28;20405;-79
2022/01/09 12:03:35;;;;;;;2.33;1.10;;;4.40;99.90;;;;;;5068552;28;20360;-79
2022/01/09 12:06:39;;;;;;;1.10;1.00;;;4.40;99.90;;;;;;5089458;28;20356;-80
2022/01/09 12:09:41;;;;;;;4.03;1.70;;;4.40;99.90;;;;;;5082874;28;20726;-80
2022/01/09 12:12:36;;;;;;;3.20;1.40;;;4.00;99.90;;;;;;5084170;28;20350;-80
2022/01/09 12:15:37;;;;;;;2.23;1.13;;;3.90;99.90;;;;;;5089170;28;20446;-80
2022/01/09 12:18:42;;;;;;;1.87;1.50;;;4.10;99.90;;;;;;5092189;28;20527;-80
2022/01/09 12:21:49;;;;;;;1.60;1.50;;;4.10;99.90;;;;;;5092138;28;20446;-80
2022/01/09 12:24:41;;;;;;;1.63;1.33;;;4.30;99.90;;;;;;5077938;28;20382;-79
2022/01/09 12:27:43;;;;;;;5.20;1.40;;;4.40;99.90;;;;;;5088896;28;20516;-79
2022/01/09 12:30:51;;;;;;;1.63;1.43;;;4.40;99.90;;;;;;5089398;28;20363;-80
2022/01/09 12:33:45;;;;;;;2.90;2.47;;;4.50;99.90;;;;;;5078082;28;20477;-79
2022/01/09 12:36:32;;;;;;;1.60;1.50;;;4.60;99.90;;;;;;5074753;28;20394;-80
2022/01/09 12:39:18;;;;;;;1.70;1.60;;;4.50;99.90;;;;;;5090540;28;20466;-79
2022/01/09 12:42:03;;;;;;;3.43;2.27;;;4.70;99.90;;;;;;5088007;28;20360;-80
2022/01/09 12:44:54;;;;;;;3.93;2.20;;;4.80;99.90;;;;;;5089769;28;20470;-79
2022/01/09 12:47:40;;;;;;;3.93;2.37;;;4.70;99.90;;;;;;5089628;28;20499;-79
2022/01/09 12:50:35;;;;;;;2.57;2.00;;;4.70;99.90;;;;;;5090249;28;20713;-79
2022/01/09 12:53:22;;;;;;;2.90;2.23;;;4.70;99.90;;;;;;5090096;28;20436;-79
2022/01/09 12:56:09;;;;;;;4.53;1.73;;;4.80;99.90;;;;;;5089571;28;20771;-79
2022/01/09 12:58:58;;;;;;;6.90;2.40;;;4.90;99.90;;;;;;5074727;28;20451;-80
2022/01/09 13:01:46;;;;;;;1.83;1.67;;;4.90;99.90;;;;;;5093551;28;20395;-80
2022/01/09 13:04:34;;;;;;;4.57;3.00;;;5.00;99.90;;;;;;5078178;28;20393;-79
2022/01/09 13:07:19;;;;;;;3.93;1.73;;;5.00;99.90;;;;;;5093131;28;20405;-79
2022/01/09 13:10:15;;;;;;;5.57;2.70;;;4.90;99.90;;;;;;5093922;28;20381;-80
2022/01/09 13:13:08;;;;;;;3.03;2.07;;;5.10;99.90;;;;;;5091267;28;20385;-79
2022/01/09 13:15:54;;;;;;;4.30;2.07;;;5.20;99.90;;;;;;5090297;28;20479;-80
2022/01/09 13:18:44;;;;;;;1.63;1.53;;;5.20;99.90;;;;;;5089771;28;20448;-80
2022/01/09 13:21:34;;;;;;;1.83;1.73;;;5.30;99.90;;;;;;5088564;28;20571;-80
2022/01/09 13:24:22;;;;;;;5.80;2.53;;;5.40;99.90;;;;;;5073874;28;20360;-80
2022/01/09 13:27:08;;;;;;;4.33;2.63;;;5.40;99.90;;;;;;5087656;28;20454;-80
2022/01/09 13:29:56;;;;;;;5.63;2.30;;;5.50;99.90;;;;;;5089002;28;20422;-80
2022/01/09 13:32:41;;;;;;;9.30;2.37;;;5.50;99.90;;;;;;5090078;28;20453;-80
2022/01/09 13:35:25;;;;;;;4.93;1.80;;;5.40;99.90;;;;;;5089059;28;20397;-80
2022/01/09 13:38:10;;;;;;;4.30;2.23;;;5.40;99.90;;;;;;5074254;28;20454;-80
2022/01/09 13:40:55;;;;;;;4.13;3.63;;;5.30;99.90;;;;;;5088964;28;20375;-79
2022/01/09 13:43:40;;;;;;;2.70;2.50;;;5.30;99.90;;;;;;5089663;28;20363;-79
2022/01/09 13:46:24;;;;;;;13.10;2.57;;;5.50;99.90;;;;;;5076211;28;20892;-80
2022/01/09 13:49:12;;;;;;;4.13;2.77;;;5.70;99.90;;;;;;5092469;28;20400;-80
2022/01/09 13:51:57;;;;;;;3.97;2.17;;;5.50;99.90;;;;;;5092650;28;20400;-80
2022/01/09 13:54:42;;;;;;;5.43;2.37;;;5.10;99.90;;;;;;5077922;28;20375;-79
2022/01/09 13:57:28;;;;;;;6.60;2.30;;;5.10;99.90;;;;;;5092889;28;20389;-79
2022/01/09 14:00:13;;;;;;;6.10;3.37;;;5.10;99.90;;;;;;5087944;28;20372;-80
2022/01/09 14:02:59;;;;;;;2.73;2.47;;;5.10;99.90;;;;;;5091882;28;20458;-80
2022/01/09 14:05:46;;;;;;;3.37;2.67;;;5.00;99.90;;;;;;5091484;28;20390;-80
2022/01/09 14:08:35;;;;;;;2.73;2.37;;;5.00;99.90;;;;;;5091460;28;20374;-81
2022/01/09 14:11:21;;;;;;;2.60;2.40;;;5.10;99.90;;;;;;5076339;28;20374;-80
2022/01/09 14:14:06;;;;;;;3.40;2.33;;;5.00;99.90;;;;;;5092625;28;20427;-82
2022/01/09 14:16:50;;;;;;;2.53;2.10;;;4.80;99.90;;;;;;5099489;28;20360;-82
2022/01/09 14:19:45;;;;;;;2.33;2.13;;;4.80;99.90;;;;;;5098382;28;20457;-82
2022/01/09 14:22:40;;;;;;;2.80;2.03;;;4.90;99.90;;;;;;5081015;28;20424;-82
2022/01/09 14:25:36;;;;;;;3.60;2.93;;;5.00;99.90;;;;;;5084130;28;20413;-81
2022/01/09 14:28:21;;;;;;;2.40;2.20;;;5.10;99.90;;;;;;5085097;28;20360;-81
2022/01/09 14:31:09;;;;;;;4.03;3.10;;;5.30;99.90;;;;;;5083838;28;20375;-81
2022/01/09 14:33:57;;;;;;;7.43;2.60;;;5.30;99.90;;;;;;5083285;28;20431;-81
2022/01/09 14:36:44;;;;;;;7.50;2.23;;;5.10;99.90;;;;;;5084537;28;20375;-80
2022/01/09 14:39:28;;;;;;;3.73;2.10;;;5.10;99.90;;;;;;5084254;28;20456;-80